createdAt,value
2022-08-19T00:02:00.824Z,19.98
2022-08-19T00:04:31.384Z,19.95
2022-08-19T00:06:59.540Z,19.92
2022-08-19T00:09:27.065Z,19.87
2022-08-19T00:11:56.543Z,19.85
2022-08-19T00:14:25.042Z,19.82
2022-08-19T00:16:55.574Z,19.78
2022-08-19T00:19:23.372Z,19.71
2022-08-19T00:21:50.211Z,19.69
2022-08-19T00:24:17.061Z,19.67
2022-08-19T00:26:46.364Z,19.63
2022-08-19T00:29:15.280Z,19.60
2022-08-19T00:31:44.064Z,19.55
2022-08-19T00:34:12.204Z,19.52
2022-08-19T00:36:38.883Z,19.47
2022-08-19T00:39:05.870Z,19.44
2022-08-19T00:41:32.634Z,19.41
2022-08-19T00:44:29.948Z,19.38
2022-08-19T00:46:59.946Z,19.37
2022-08-19T00:49:37.287Z,19.33
2022-08-19T00:52:15.041Z,19.28
2022-08-19T00:54:42.388Z,19.27
2022-08-19T00:57:13.730Z,19.25
2022-08-19T00:59:56.191Z,19.21
2022-08-19T01:02:29.088Z,19.16
2022-08-19T01:04:56.368Z,19.13
2022-08-19T01:07:23.083Z,19.13
2022-08-19T01:09:50.587Z,19.10
2022-08-19T01:12:18.606Z,19.07
2022-08-19T01:14:46.320Z,19.05
2022-08-19T01:17:14.222Z,19.00
2022-08-19T01:19:44.018Z,18.95
2022-08-19T01:22:30.017Z,18.94
2022-08-19T01:24:57.560Z,18.93
2022-08-19T01:27:25.918Z,18.90
2022-08-19T01:29:52.545Z,18.87
2022-08-19T01:32:32.514Z,18.84
2022-08-19T01:35:03.085Z,18.79
2022-08-19T01:37:31.492Z,18.76
2022-08-19T01:39:58.545Z,18.75
2022-08-19T01:42:30.063Z,18.73
2022-08-19T01:44:57.577Z,18.69
2022-08-19T01:47:24.140Z,18.66
2022-08-19T01:49:50.629Z,18.64
2022-08-19T01:52:17.161Z,18.62
2022-08-19T01:54:43.659Z,18.59
2022-08-19T01:57:13.554Z,18.56
2022-08-19T01:59:42.318Z,18.53
2022-08-19T02:02:09.440Z,18.50
2022-08-19T02:04:36.657Z,18.46
2022-08-19T02:07:03.576Z,18.43
2022-08-19T02:09:31.984Z,18.41
2022-08-19T02:11:58.570Z,18.41
2022-08-19T02:14:25.255Z,18.37
2022-08-19T02:16:51.991Z,18.34
2022-08-19T02:19:18.516Z,18.32
2022-08-19T02:21:45.043Z,18.28
2022-08-19T02:24:11.618Z,18.26
2022-08-19T02:26:38.113Z,18.24
2022-08-19T02:29:05.181Z,18.20
2022-08-19T02:31:31.724Z,18.20
2022-08-19T02:33:58.369Z,18.17
2022-08-19T02:36:26.455Z,18.15
2022-08-19T02:38:54.864Z,18.10
2022-08-19T02:41:33.872Z,18.08
2022-08-19T02:44:30.052Z,18.05
2022-08-19T02:46:51.609Z,18.06
2022-08-19T02:49:18.970Z,18.02
2022-08-19T02:51:46.812Z,17.98
2022-08-19T02:54:14.333Z,17.95
2022-08-19T02:56:42.572Z,17.93
2022-08-19T02:59:12.880Z,17.92
2022-08-19T03:01:42.111Z,17.91
2022-08-19T03:04:11.217Z,17.88
2022-08-19T03:06:46.341Z,17.87
2022-08-19T03:09:13.768Z,17.84
2022-08-19T03:11:40.592Z,17.80
2022-08-19T03:14:09.257Z,17.75
2022-08-19T03:16:42.607Z,17.76
2022-08-19T03:19:09.460Z,17.74
2022-08-19T03:21:36.291Z,17.72
2022-08-19T03:24:07.324Z,17.73
2022-08-19T03:26:35.121Z,17.69
2022-08-19T03:29:05.996Z,17.69
2022-08-19T03:31:43.319Z,17.65
2022-08-19T03:34:27.422Z,17.63
2022-08-19T03:36:56.451Z,17.59
2022-08-19T03:39:24.431Z,17.58
2022-08-19T03:42:32.306Z,17.58
2022-08-19T03:44:39.841Z,17.56
2022-08-19T03:47:06.595Z,17.56
2022-08-19T03:49:36.163Z,17.54
2022-08-19T03:52:06.017Z,17.54
2022-08-19T03:54:32.809Z,17.50
2022-08-19T03:56:59.418Z,17.50
2022-08-19T03:59:37.231Z,17.46
2022-08-19T04:02:10.085Z,17.43
2022-08-19T04:04:39.211Z,17.43
2022-08-19T04:07:05.730Z,17.43
2022-08-19T04:09:34.675Z,17.37
2022-08-19T04:12:01.200Z,17.37
2022-08-19T04:14:31.350Z,17.35
2022-08-19T04:17:04.090Z,17.33
2022-08-19T04:19:31.433Z,17.32
2022-08-19T04:21:58.326Z,17.28
2022-08-19T04:24:24.932Z,17.28
2022-08-19T04:26:52.453Z,17.27
2022-08-19T04:29:22.918Z,17.25
2022-08-19T04:31:50.080Z,17.25
2022-08-19T04:34:18.741Z,17.22
2022-08-19T04:36:45.829Z,17.18
2022-08-19T04:39:16.703Z,17.15
2022-08-19T04:42:02.837Z,17.16
2022-08-19T04:44:31.625Z,17.13
2022-08-19T04:47:00.449Z,17.13
2022-08-19T04:49:28.440Z,17.10
2022-08-19T04:51:55.420Z,17.08
2022-08-19T04:54:37.843Z,17.08
2022-08-19T04:57:10.730Z,17.06
2022-08-19T04:59:39.347Z,17.04
2022-08-19T05:02:07.521Z,17.04
2022-08-19T05:04:34.660Z,17.03
2022-08-19T05:07:04.655Z,17.04
2022-08-19T05:09:55.425Z,17.02
2022-08-19T05:12:19.099Z,17.02
2022-08-19T05:14:47.692Z,17.02
2022-08-19T05:17:27.685Z,17.01
2022-08-19T05:20:14.138Z,16.95
2022-08-19T05:22:42.019Z,16.95
2022-08-19T05:25:13.512Z,16.94
2022-08-19T05:27:41.505Z,16.96
2022-08-19T05:30:08.889Z,16.99
2022-08-19T05:32:35.891Z,17.01
2022-08-19T05:35:02.430Z,16.99
2022-08-19T05:37:29.708Z,17.02
2022-08-19T05:39:56.753Z,17.05
2022-08-19T05:42:24.189Z,17.06
2022-08-19T05:44:51.571Z,17.07
2022-08-19T05:47:20.817Z,17.09
2022-08-19T05:49:47.848Z,17.13
2022-08-19T05:52:19.453Z,17.16
2022-08-19T05:54:52.139Z,17.21
2022-08-19T05:57:21.574Z,17.24
2022-08-19T05:59:49.414Z,17.27
2022-08-19T06:02:20.380Z,17.29
2022-08-19T06:04:47.209Z,17.31
2022-08-19T06:07:13.766Z,17.39
2022-08-19T06:09:40.903Z,17.44
2022-08-19T06:12:08.149Z,17.51
2022-08-19T06:14:40.158Z,17.53
2022-08-19T06:17:08.257Z,17.56
2022-08-19T06:19:35.027Z,17.66
2022-08-19T06:22:08.442Z,17.71
2022-08-19T06:24:36.216Z,17.75
2022-08-19T06:27:03.698Z,17.81
2022-08-19T06:29:31.165Z,17.88
2022-08-19T06:32:00.766Z,17.94
2022-08-19T06:34:29.246Z,18.03
2022-08-19T06:36:57.345Z,18.09
2022-08-19T06:39:26.644Z,18.15
2022-08-19T06:41:58.924Z,18.20
2022-08-19T06:44:28.087Z,18.30
2022-08-19T06:46:57.281Z,18.32
2022-08-19T06:49:26.068Z,18.42
2022-08-19T06:51:52.642Z,18.50
2022-08-19T06:54:20.507Z,18.55
2022-08-19T06:56:47.702Z,18.49
2022-08-19T06:59:17.601Z,18.57
2022-08-19T07:01:52.876Z,18.64
2022-08-19T07:04:26.260Z,18.75
2022-08-19T07:07:19.740Z,18.81
2022-08-19T07:09:57.124Z,18.85
2022-08-19T07:12:28.370Z,18.91
2022-08-19T07:14:56.759Z,19.07
2022-08-19T07:17:24.454Z,19.14
2022-08-19T07:19:51.596Z,19.20
2022-08-19T07:22:23.887Z,19.28
2022-08-19T07:24:52.428Z,19.29
2022-08-19T07:27:24.762Z,19.40
2022-08-19T07:29:55.731Z,19.45
2022-08-19T07:32:27.883Z,19.55
2022-08-19T07:34:55.092Z,19.61
2022-08-19T07:37:23.531Z,19.69
2022-08-19T07:39:50.202Z,19.80
2022-08-19T07:42:18.147Z,19.86
2022-08-19T07:44:50.185Z,19.91
2022-08-19T07:47:49.996Z,20.14
2022-08-19T07:50:07.777Z,20.29
2022-08-19T07:52:35.220Z,20.35
2022-08-19T07:55:04.716Z,20.51
2022-08-19T07:57:31.332Z,20.65
2022-08-19T07:59:57.896Z,20.75
2022-08-19T08:02:24.514Z,20.74
2022-08-19T08:05:09.698Z,20.86
2022-08-19T08:07:55.187Z,20.95
2022-08-19T08:10:21.764Z,21.03
2022-08-19T08:13:08.961Z,21.09
2022-08-19T08:15:42.217Z,21.19
2022-08-19T08:18:09.681Z,21.25
2022-08-19T08:20:36.311Z,21.39
2022-08-19T08:23:21.967Z,21.51
2022-08-19T08:25:50.091Z,21.54
2022-08-19T08:28:18.131Z,21.72
2022-08-19T08:30:49.031Z,21.87
2022-08-19T08:33:28.515Z,21.91
2022-08-19T08:36:02.025Z,21.92
2022-08-19T08:38:39.055Z,22.06
2022-08-19T08:41:22.251Z,22.15
2022-08-19T08:43:52.991Z,22.35
2022-08-19T08:46:39.380Z,22.45
2022-08-19T08:49:27.487Z,22.50
2022-08-19T08:52:06.003Z,22.70
2022-08-19T08:54:41.055Z,23.04
2022-08-19T08:57:23.518Z,23.48
2022-08-19T08:59:56.023Z,23.78
2022-08-19T09:02:23.071Z,23.90
2022-08-19T09:04:50.651Z,24.34
2022-08-19T09:07:54.414Z,24.57
2022-08-19T09:10:44.261Z,24.95
2022-08-19T09:13:28.637Z,25.11
2022-08-19T09:16:02.556Z,25.39
2022-08-19T09:18:53.048Z,25.44
2022-08-19T09:21:33.057Z,25.44
2022-08-19T09:24:00.635Z,25.55
2022-08-19T09:26:47.614Z,25.89
2022-08-19T09:29:15.621Z,26.02
2022-08-19T09:31:44.321Z,26.11
2022-08-19T09:34:21.693Z,26.15
2022-08-19T09:36:54.311Z,26.33
2022-08-19T09:39:23.259Z,26.57
2022-08-19T09:41:51.047Z,26.80
2022-08-19T09:44:18.990Z,27.08
2022-08-19T09:46:48.166Z,27.13
2022-08-19T09:49:22.805Z,26.83
2022-08-19T09:51:52.638Z,26.95
2022-08-19T09:54:23.854Z,26.75
2022-08-19T09:56:52.563Z,26.71
2022-08-19T09:59:19.450Z,26.77
2022-08-19T10:01:46.239Z,26.70
2022-08-19T10:04:19.758Z,26.67
2022-08-19T10:06:48.686Z,26.93
2022-08-19T10:09:26.302Z,26.81
2022-08-19T10:12:02.502Z,26.57
2022-08-19T10:14:29.574Z,26.94
2022-08-19T10:16:59.086Z,26.96
2022-08-19T10:19:26.440Z,26.93
2022-08-19T10:21:55.691Z,27.02
2022-08-19T10:24:28.778Z,27.07
2022-08-19T10:26:58.838Z,27.20
2022-08-19T10:29:31.952Z,27.00
2022-08-19T10:32:02.790Z,27.13
2022-08-19T10:34:31.715Z,27.37
2022-08-19T10:37:01.665Z,27.25
2022-08-19T10:39:31.351Z,27.57
2022-08-19T10:41:58.827Z,27.66
2022-08-19T10:44:31.956Z,27.78
2022-08-19T10:47:00.567Z,28.00
2022-08-19T10:49:28.015Z,28.00
2022-08-19T10:52:32.390Z,28.10
2022-08-19T10:55:22.144Z,27.94
2022-08-19T10:58:04.377Z,28.05
2022-08-19T11:00:32.561Z,28.19
2022-08-19T11:02:59.316Z,28.27
2022-08-19T11:05:25.915Z,28.33
2022-08-19T11:07:53.140Z,28.38
2022-08-19T11:10:21.820Z,28.18
2022-08-19T11:12:49.274Z,28.47
2022-08-19T11:15:16.261Z,28.66
2022-08-19T11:17:44.720Z,28.82
2022-08-19T11:20:13.354Z,29.03
2022-08-19T11:22:41.799Z,29.20
2022-08-19T11:25:10.365Z,29.32
2022-08-19T11:27:43.895Z,29.41
2022-08-19T11:30:13.576Z,29.52
2022-08-19T11:32:47.132Z,29.41
2022-08-19T11:35:16.973Z,29.40
2022-08-19T11:37:43.750Z,29.73
2022-08-19T11:40:11.126Z,29.92
2022-08-19T11:42:56.640Z,29.95
2022-08-19T11:45:24.853Z,30.22
2022-08-19T11:47:51.573Z,30.35
2022-08-19T11:50:18.937Z,30.28
2022-08-19T11:52:46.625Z,30.44
2022-08-19T11:55:15.218Z,30.60
2022-08-19T11:57:42.317Z,30.78
2022-08-19T12:00:10.842Z,30.95
2022-08-19T12:02:37.684Z,30.63
2022-08-19T12:05:07.924Z,30.69
2022-08-19T12:07:36.940Z,31.04
2022-08-19T12:10:04.168Z,30.93
2022-08-19T12:12:30.882Z,30.81
2022-08-19T12:14:59.348Z,30.56
2022-08-19T12:17:29.754Z,30.05
2022-08-19T12:19:59.108Z,30.58
2022-08-19T12:22:25.730Z,31.03
2022-08-19T12:24:54.242Z,31.40
2022-08-19T12:27:35.689Z,31.59
2022-08-19T12:30:12.478Z,31.81
2022-08-19T12:32:39.961Z,32.01
2022-08-19T12:35:07.999Z,32.11
2022-08-19T12:37:35.081Z,31.86
2022-08-19T12:40:02.185Z,31.65
2022-08-19T12:42:29.017Z,31.17
2022-08-19T12:44:56.018Z,31.35
2022-08-19T12:47:22.995Z,31.84
2022-08-19T12:49:53.954Z,32.09
2022-08-19T12:52:26.648Z,31.54
2022-08-19T12:54:55.739Z,31.78
2022-08-19T12:57:31.895Z,31.43
2022-08-19T12:59:59.198Z,32.00
2022-08-19T13:02:25.745Z,32.21
2022-08-19T13:04:52.245Z,32.26
2022-08-19T13:07:18.809Z,32.03
2022-08-19T13:09:45.691Z,31.58
2022-08-19T13:12:14.405Z,31.98
2022-08-19T13:14:41.420Z,31.58
2022-08-19T13:17:09.309Z,31.18
2022-08-19T13:19:37.915Z,31.54
2022-08-19T13:22:04.620Z,31.81
2022-08-19T13:24:41.958Z,31.72
2022-08-19T13:27:11.797Z,31.79
2022-08-19T13:29:58.936Z,31.79
2022-08-19T13:32:43.790Z,31.41
2022-08-19T13:35:16.218Z,31.45
2022-08-19T13:37:43.751Z,31.49
2022-08-19T13:40:19.286Z,31.23
2022-08-19T13:42:48.689Z,31.23
2022-08-19T13:45:21.798Z,31.52
2022-08-19T13:47:50.065Z,31.59
2022-08-19T13:50:19.608Z,31.65
2022-08-19T13:52:48.413Z,31.62
2022-08-19T13:55:16.638Z,31.23
2022-08-19T13:57:52.933Z,29.64
2022-08-19T14:00:20.454Z,29.14
2022-08-19T14:02:48.558Z,29.86
2022-08-19T14:05:16.990Z,30.06
2022-08-19T14:07:43.769Z,30.08
2022-08-19T14:10:12.423Z,30.19
2022-08-19T14:12:40.111Z,30.13
2022-08-19T14:15:08.606Z,29.24
2022-08-19T14:17:37.975Z,29.03
2022-08-19T14:20:11.258Z,29.35
2022-08-19T14:22:45.390Z,28.76
2022-08-19T14:25:15.571Z,29.03
2022-08-19T14:27:42.801Z,28.98
2022-08-19T14:30:12.629Z,28.61
2022-08-19T14:32:39.219Z,28.49
2022-08-19T14:35:08.189Z,28.55
2022-08-19T14:37:37.264Z,27.84
2022-08-19T14:40:14.532Z,27.48
2022-08-19T14:42:41.964Z,27.65
2022-08-19T14:45:09.522Z,27.13
2022-08-19T14:47:36.114Z,27.50
2022-08-19T14:50:18.023Z,27.77
2022-08-19T14:52:49.339Z,27.91
2022-08-19T14:55:19.175Z,27.92
2022-08-19T14:57:45.979Z,27.90
2022-08-19T15:00:15.866Z,27.80
2022-08-19T15:02:45.309Z,27.79
2022-08-19T15:05:13.250Z,27.72
2022-08-19T15:07:40.593Z,27.67
2022-08-19T15:10:08.700Z,27.57
2022-08-19T15:12:36.536Z,27.57
2022-08-19T15:15:03.788Z,27.56
2022-08-19T15:17:43.593Z,27.55
2022-08-19T15:20:16.379Z,27.57
2022-08-19T15:22:43.271Z,27.52
2022-08-19T15:25:12.529Z,27.56
2022-08-19T15:27:41.578Z,27.58
2022-08-19T15:30:09.832Z,27.62
2022-08-19T15:32:37.378Z,27.56
2022-08-19T15:35:06.089Z,27.38
2022-08-19T15:37:34.524Z,27.56
2022-08-19T15:40:07.576Z,27.74
2022-08-19T15:42:36.320Z,27.78
2022-08-19T15:45:04.144Z,27.76
2022-08-19T15:47:34.683Z,27.80
2022-08-19T15:50:11.114Z,27.43
2022-08-19T15:52:52.295Z,27.35
2022-08-19T15:55:33.820Z,27.60
2022-08-19T15:58:28.411Z,27.60
2022-08-19T16:01:14.820Z,27.60
2022-08-19T16:03:59.679Z,27.58
2022-08-19T16:06:26.401Z,27.57
2022-08-19T16:08:54.974Z,27.47
2022-08-19T16:11:23.444Z,27.42
2022-08-19T16:13:52.718Z,27.40
2022-08-19T16:16:20.187Z,27.35
2022-08-19T16:18:47.347Z,27.33
2022-08-19T16:21:17.262Z,27.28
2022-08-19T16:23:48.158Z,27.26
2022-08-19T16:26:16.479Z,27.23
2022-08-19T16:28:43.917Z,27.06
2022-08-19T16:31:12.063Z,27.03
2022-08-19T16:33:38.644Z,27.03
2022-08-19T16:36:07.271Z,26.83
2022-08-19T16:38:34.925Z,26.80
2022-08-19T16:41:01.751Z,26.86
2022-08-19T16:43:30.566Z,26.92
2022-08-19T16:45:57.863Z,26.90
2022-08-19T16:48:29.778Z,26.90
2022-08-19T16:50:57.519Z,26.84
2022-08-19T16:53:29.097Z,26.70
2022-08-19T16:55:59.238Z,26.74
2022-08-19T16:58:28.152Z,26.78
2022-08-19T17:00:59.595Z,26.79
2022-08-19T17:03:36.297Z,26.83
2022-08-19T17:06:15.807Z,26.82
2022-08-19T17:08:48.613Z,26.83
2022-08-19T17:11:18.609Z,26.65
2022-08-19T17:13:47.809Z,26.50
2022-08-19T17:16:15.632Z,26.64
2022-08-19T17:18:42.156Z,26.70
2022-08-19T17:21:08.681Z,26.48
2022-08-19T17:23:36.688Z,26.64
2022-08-19T17:26:16.871Z,26.61
2022-08-19T17:28:45.263Z,26.64
2022-08-19T17:31:12.247Z,26.58
2022-08-19T17:33:41.213Z,26.29
2022-08-19T17:36:08.715Z,26.32
2022-08-19T17:38:37.694Z,26.37
2022-08-19T17:41:06.022Z,26.29
2022-08-19T17:43:40.066Z,26.36
2022-08-19T17:46:12.065Z,26.21
2022-08-19T17:48:48.382Z,26.12
2022-08-19T17:51:21.965Z,25.82
2022-08-19T17:53:51.241Z,25.96
2022-08-19T17:56:18.687Z,25.84
2022-08-19T17:58:57.839Z,25.83
2022-08-19T18:01:30.746Z,25.89
2022-08-19T18:04:14.891Z,25.78
2022-08-19T18:06:46.538Z,25.85
2022-08-19T18:09:20.691Z,25.84
2022-08-19T18:11:52.946Z,25.80
2022-08-19T18:14:20.825Z,25.75
2022-08-19T18:16:47.376Z,25.68
2022-08-19T18:19:15.502Z,25.67
2022-08-19T18:21:42.507Z,25.41
2022-08-19T18:24:10.161Z,25.09
2022-08-19T18:26:36.912Z,25.19
2022-08-19T18:29:03.652Z,25.12
2022-08-19T18:31:31.380Z,25.22
2022-08-19T18:34:00.369Z,25.13
2022-08-19T18:36:53.383Z,25.13
2022-08-19T18:39:44.249Z,25.11
2022-08-19T18:42:35.304Z,25.12
2022-08-19T18:45:21.799Z,25.07
2022-08-19T18:48:06.659Z,25.03
2022-08-19T18:50:54.402Z,24.99
2022-08-19T18:53:23.934Z,24.94
2022-08-19T18:55:55.796Z,24.88
2022-08-19T18:58:32.398Z,24.85
2022-08-19T19:01:07.294Z,24.78
2022-08-19T19:03:34.217Z,24.75
2022-08-19T19:06:01.969Z,24.69
2022-08-19T19:08:28.613Z,24.64
2022-08-19T19:10:56.475Z,24.58
2022-08-19T19:13:23.344Z,24.54
2022-08-19T19:15:58.603Z,24.49
2022-08-19T19:18:25.263Z,24.45
2022-08-19T19:20:52.331Z,24.41
2022-08-19T19:23:20.787Z,24.38
2022-08-19T19:25:51.075Z,24.28
2022-08-19T19:28:29.245Z,24.24
2022-08-19T19:31:00.303Z,24.20
2022-08-19T19:33:30.116Z,24.14
2022-08-19T19:35:56.797Z,24.11
2022-08-19T19:38:23.641Z,24.01
2022-08-19T19:40:54.757Z,23.95
2022-08-19T19:43:24.088Z,23.89
2022-08-19T19:45:52.431Z,23.74
2022-08-19T19:48:19.038Z,23.66
2022-08-19T19:50:46.704Z,23.70
2022-08-19T19:53:23.521Z,23.72
2022-08-19T19:55:51.730Z,23.67
2022-08-19T19:58:21.217Z,23.61
2022-08-19T20:00:55.304Z,23.51
2022-08-19T20:03:23.339Z,23.39
2022-08-19T20:05:50.345Z,23.39
2022-08-19T20:08:36.094Z,23.37
2022-08-19T20:11:05.461Z,23.31
2022-08-19T20:13:33.362Z,23.23
2022-08-19T20:16:00.068Z,23.20
2022-08-19T20:18:30.204Z,23.16
2022-08-19T20:20:57.018Z,23.10
2022-08-19T20:23:23.787Z,23.03
2022-08-19T20:25:50.512Z,22.97
2022-08-19T20:28:18.074Z,22.95
2022-08-19T20:30:46.432Z,22.88
2022-08-19T20:33:14.672Z,22.86
2022-08-19T20:35:42.769Z,22.79
2022-08-19T20:38:09.554Z,22.73
2022-08-19T20:40:36.394Z,22.65
2022-08-19T20:43:07.777Z,22.62
2022-08-19T20:45:36.333Z,22.56
2022-08-19T20:48:06.383Z,22.55
2022-08-19T20:50:35.272Z,22.47
2022-08-19T20:53:10.331Z,22.45
2022-08-19T20:55:36.862Z,22.40
2022-08-19T20:58:03.909Z,22.38
2022-08-19T21:00:30.732Z,22.30
2022-08-19T21:02:57.453Z,22.21
2022-08-19T21:05:27.290Z,22.22
2022-08-19T21:07:57.731Z,22.18
2022-08-19T21:10:25.291Z,22.13
2022-08-19T21:12:53.517Z,22.00
2022-08-19T21:15:20.136Z,21.98
2022-08-19T21:17:48.698Z,21.98
2022-08-19T21:20:15.460Z,21.96
2022-08-19T21:22:42.007Z,21.95
2022-08-19T21:25:08.591Z,21.93
2022-08-19T21:27:35.143Z,21.89
2022-08-19T21:30:02.170Z,21.88
2022-08-19T21:32:28.771Z,21.86
2022-08-19T21:34:55.425Z,21.82
2022-08-19T21:37:25.153Z,21.79
2022-08-19T21:39:54.142Z,21.76
2022-08-19T21:42:21.794Z,21.72
2022-08-19T21:44:48.465Z,21.72
2022-08-19T21:47:15.497Z,21.70
2022-08-19T21:49:42.058Z,21.69
2022-08-19T21:52:08.833Z,21.67
2022-08-19T21:54:37.790Z,21.67
2022-08-19T21:57:07.082Z,21.65
2022-08-19T21:59:38.026Z,21.60
2022-08-19T22:02:19.167Z,21.60
2022-08-19T22:04:46.240Z,21.56
2022-08-19T22:07:14.376Z,21.56
2022-08-19T22:09:42.841Z,21.49
2022-08-19T22:12:11.519Z,21.51
2022-08-19T22:14:38.925Z,21.50
2022-08-19T22:17:06.239Z,21.47
2022-08-19T22:19:33.282Z,21.46
2022-08-19T22:22:00.742Z,21.32
2022-08-19T22:24:27.436Z,21.36
2022-08-19T22:26:54.049Z,21.37
2022-08-19T22:29:33.117Z,21.41
2022-08-19T22:32:17.777Z,21.41
2022-08-19T22:34:48.169Z,21.42
2022-08-19T22:37:14.828Z,21.37
2022-08-19T22:39:41.435Z,21.37
2022-08-19T22:42:08.054Z,21.34
2022-08-19T22:44:34.668Z,21.35
2022-08-19T22:47:02.300Z,21.29
2022-08-19T22:49:28.814Z,21.31
2022-08-19T22:52:14.014Z,21.30
2022-08-19T22:54:40.537Z,21.29
2022-08-19T22:57:07.062Z,21.26
2022-08-19T22:59:33.595Z,21.22
2022-08-19T23:02:00.131Z,21.18
2022-08-19T23:04:26.681Z,21.21
2022-08-19T23:06:53.476Z,21.20
2022-08-19T23:09:20.149Z,21.19
2022-08-19T23:11:50.016Z,21.21
2022-08-19T23:14:17.603Z,21.18
2022-08-19T23:16:50.430Z,21.18
2022-08-19T23:19:17.411Z,21.20
2022-08-19T23:21:43.994Z,21.16
2022-08-19T23:24:11.501Z,21.16
2022-08-19T23:26:38.053Z,21.15
2022-08-19T23:29:24.135Z,21.15
2022-08-19T23:31:50.822Z,21.14
2022-08-19T23:34:18.084Z,21.12
2022-08-19T23:36:44.587Z,21.11
2022-08-19T23:39:11.067Z,21.11
2022-08-19T23:41:37.587Z,21.06
2022-08-19T23:44:04.245Z,21.03
2022-08-19T23:46:30.945Z,21.01
2022-08-19T23:49:08.755Z,21.02
2022-08-19T23:51:35.270Z,21.01
2022-08-19T23:54:01.779Z,21.02
2022-08-19T23:56:28.341Z,21.02
2022-08-19T23:58:55.150Z,21.01
